NCAR-RAP Real-Time Weather Data

Output produced by METARs form (14 October 2019  23:36 UTC)
found at http://weather.rap.ucar.edu/surface/
 
KCYS 142253Z 28018G22KT 10SM CLR 19/M13 A2993 RMK AO2 PK WND 30026/2238 SLP085 T01891133
KCYS 142153Z 29019G27KT 10SM CLR 20/M14 A2992 RMK AO2 PK WND 27031/2059 SLP076 T02001139
KCYS 142053Z 28025G30KT 10SM CLR 19/M17 A2992 RMK AO2 PK WND 27034/2026 SLP075 T01941172 56010
KCYS 141953Z 27013G25KT 10SM CLR 19/M17 A2993 RMK AO2 PK WND 28029/1935 SLP082 T01941167
KCYS 141853Z 26020G27KT 10SM CLR 19/M16 A2995 RMK AO2 PK WND 27032/1811 SLP088 T01941161
KCYS 141753Z 29019G33KT 10SM CLR 18/M17 A2996 RMK AO2 PK WND 26033/1746 SLP092 T01831167 10189 20017 58006
KCYS 141653Z 27015G26KT 10SM CLR 17/M15 A2998 RMK AO2 PK WND 29027/1606 SLP099 T01721150
KCYS 141553Z 27019G23KT 10SM CLR 16/M13 A2998 RMK AO2 SLP103 T01561128
KCYS 141453Z 24011KT 10SM CLR 11/M11 A2998 RMK AO2 SLP107 T01111111 53004
KCYS 141353Z 29008KT 10SM CLR 04/M12 A2997 RMK AO2 SLP124 T00391117
KCYS 141253Z 28011KT 10SM CLR 03/M12 A2997 RMK AO2 SLP120 T00281122
KCYS 141153Z 28011KT 10SM CLR 07/M14 A2996 RMK AO2 SLP092 T00721139 10078 20022 53001
KCYS 141053Z AUTO 28009KT 10SM CLR 03/M13 A2996 RMK AO2 SLP095 T00331128
KCYS 140953Z AUTO 30008KT 10SM CLR 04/M13 A2995 RMK AO2 SLP087 T00441128
KCYS 140853Z AUTO 29008KT 10SM CLR 06/M13 A2996 RMK AO2 SLP088 T00561133 57007
KCYS 140753Z AUTO 29008KT 10SM CLR 03/M11 A2997 RMK AO2 SLP097 T00331106
KCYS 140653Z AUTO 30005KT 10SM CLR 03/M09 A2998 RMK AO2 SLP102 T00331094 401941011
KCYS 140553Z AUTO 28006KT 10SM CLR 04/M10 A2998 RMK AO2 SLP106 T00441100 10167 20039 58005
KCYS 140453Z AUTO 28007KT 10SM CLR 06/M11 A2999 RMK AO2 SLP109 T00561111
KCYS 140353Z 30007KT 10SM CLR 07/M11 A3000 RMK AO2 SLP114 T00671106
KCYS 140253Z 31006KT 10SM CLR 08/M12 A3000 RMK AO2 SLP119 T00831117 51008
KCYS 140153Z 36004KT 10SM CLR 09/M11 A3000 RMK AO2 SLP129 T00891106
KCYS 140053Z 27005KT 10SM CLR 12/M13 A2998 RMK AO2 SLP119 T01171128
KCYS 132353Z AUTO 29006KT 10SM CLR 17/M14 A2997 RMK AO2 SLP100 T01671144 10194 20167 55000
KCYS 132253Z AUTO 28006G15KT 10SM CLR 18/M15 A2997 RMK AO2 SLP099 T01831150
KCYS 132153Z AUTO 30010KT 10SM CLR 19/M15 A2997 RMK AO2 SLP101 T01941150
KCYS 132053Z AUTO 28014G20KT 10SM CLR 19/M15 A2997 RMK AO2 SLP102 T01941150 56010
KCYS 131953Z 29015G22KT 10SM CLR 19/M16 A2998 RMK AO2 SLP112 T01891156
KCYS 131853Z 27017G23KT 10SM CLR 19/M16 A2999 RMK AO2 PK WND 27030/1754 SLP119 T01891156
KCYS 131753Z 27022G27KT 10SM CLR 17/M18 A3001 RMK AO2 PK WND 28028/1742 SLP131 T01671178 10167 20039 58004
KCYS 131653Z 28019G27KT 10SM CLR 16/M17 A3002 RMK AO2 PK WND 27030/1627 SLP129 T01561172
KCYS 131553Z 28016KT 10SM CLR 13/M16 A3003 RMK AO2 SLP135 T01331156
KCYS 131453Z 27013KT 10SM CLR 11/M14 A3002 RMK AO2 SLP136 T01061144 53010
KCYS 131353Z 26009KT 10SM CLR 07/M15 A3001 RMK AO2 SLP131 T00671150
KCYS 131253Z 24013KT 10SM CLR 05/M14 A3000 RMK AO2 SLP127 T00501144
KCYS 131153Z 24013KT 10SM CLR 06/M14 A2999 RMK AO2 SLP109 T00561144 10056 21017 55000
KCYS 131053Z AUTO 22011KT 10SM CLR 02/M13 A2997 RMK AO2 SLP113 T00221128
KCYS 130953Z AUTO 23011KT 10SM CLR 01/M12 A2998 RMK AO2 SLP113 T00111122
KCYS 130853Z AUTO 29005KT 10SM CLR 02/M13 A2999 RMK AO2 SLP117 T00171133 58002
KCYS 130753Z AUTO 30005KT 10SM CLR 00/M12 A2999 RMK AO2 SLP123 T00001117
KCYS 130653Z AUTO 30003KT 10SM CLR M01/M11 A2999 RMK AO2 SLP129 T10111106 401671044
KCYS 130553Z AUTO 27007KT 10SM CLR M01/M10 A2999 RMK AO2 SLP132 T10111100 10139 21011 53001
KCYS 130453Z AUTO 29005KT 10SM CLR 02/M10 A2999 RMK AO2 SLP125 T00221100
KCYS 130353Z AUTO 25008KT 10SM CLR 03/M09 A2999 RMK AO2 SLP130 T00281094
KCYS 130253Z 24004KT 10SM CLR 04/M09 A2999 RMK AO2 SLP131 T00441089 51009
KCYS 130153Z 25004KT 10SM CLR 09/M12 A2998 RMK AO2 SLP146 T00891117
KCYS 130053Z 29007KT 10SM CLR 11/M12 A2997 RMK AO2 SLP130 T01061122
KCYS 122353Z 32008KT 10SM CLR 14/M13 A2996 RMK AO2 SLP123 T01391128 10167 20139 53003